createdAt,value
2022-12-14T00:01:45.111Z,-1.40
2022-12-14T00:06:53.300Z,-1.40
2022-12-14T00:11:55.385Z,-1.30
2022-12-14T00:16:57.559Z,-1.30
2022-12-14T00:22:01.104Z,-1.20
2022-12-14T00:27:03.209Z,-1.20
2022-12-14T00:32:05.498Z,-1.30
2022-12-14T00:37:08.984Z,-1.40
2022-12-14T00:42:11.290Z,-1.50
2022-12-14T00:47:13.456Z,-1.60
2022-12-14T00:52:16.950Z,-1.60
2022-12-14T00:57:19.023Z,-1.60
2022-12-14T01:02:21.213Z,-1.50
2022-12-14T01:07:24.891Z,-1.50
2022-12-14T01:12:26.989Z,-1.50
2022-12-14T01:17:29.146Z,-1.50
2022-12-14T01:22:32.709Z,-1.60
2022-12-14T01:27:34.798Z,-1.60
2022-12-14T01:32:36.874Z,-1.70
2022-12-14T01:37:40.373Z,-1.70
2022-12-14T01:42:42.510Z,-1.70
2022-12-14T01:47:50.273Z,-1.70
2022-12-14T01:52:57.173Z,-1.80
2022-12-14T01:58:02.735Z,-1.90
2022-12-14T02:03:07.740Z,-2.00
2022-12-14T02:08:13.296Z,-2.00
2022-12-14T02:13:19.939Z,-2.00
2022-12-14T02:18:23.548Z,-2.00
2022-12-14T02:23:58.813Z,-2.10
2022-12-14T02:29:46.722Z,-2.30
2022-12-14T02:34:58.239Z,-2.30
2022-12-14T02:40:13.351Z,-2.40
2022-12-14T02:45:27.309Z,-2.40
2022-12-14T02:50:37.177Z,-2.50
2022-12-14T02:55:45.129Z,-2.60
2022-12-14T03:00:49.251Z,-2.80
2022-12-14T03:05:59.300Z,-2.90
2022-12-14T03:11:04.809Z,-3.00
2022-12-14T03:16:13.132Z,-3.10
2022-12-14T03:21:21.485Z,-3.10
2022-12-14T03:26:28.991Z,-3.10
2022-12-14T03:31:37.654Z,-3.00
2022-12-14T03:36:44.068Z,-3.00
2022-12-14T03:41:52.243Z,-3.00
2022-12-14T03:47:05.814Z,-3.00
2022-12-14T03:52:13.181Z,-3.00
2022-12-14T03:57:23.746Z,-3.10
2022-12-14T04:02:35.035Z,-3.10
2022-12-14T04:07:49.021Z,-3.20
2022-12-14T04:12:55.788Z,-3.30
2022-12-14T04:18:05.303Z,-3.40
2022-12-14T04:23:12.605Z,-3.40
2022-12-14T04:28:19.737Z,-3.40
2022-12-14T04:33:23.603Z,-3.40
2022-12-14T04:38:33.155Z,-3.40
2022-12-14T04:43:41.009Z,-3.40
2022-12-14T04:48:48.825Z,-3.50
2022-12-14T04:53:56.670Z,-3.50
2022-12-14T04:58:59.046Z,-3.50
2022-12-14T05:04:14.589Z,-3.50
2022-12-14T05:09:24.716Z,-3.50
2022-12-14T05:14:33.775Z,-3.40
2022-12-14T05:19:44.214Z,-3.40
2022-12-14T05:24:50.818Z,-3.40
2022-12-14T05:29:52.870Z,-3.40
2022-12-14T05:34:56.405Z,-3.40
2022-12-14T05:39:58.510Z,-3.50
2022-12-14T05:45:00.618Z,-3.50
2022-12-14T05:50:06.743Z,-3.50
2022-12-14T05:55:10.230Z,-3.50
2022-12-14T06:00:13.624Z,-3.60
2022-12-14T06:05:17.168Z,-3.60
2022-12-14T06:10:19.459Z,-3.60
2022-12-14T06:15:30.781Z,-3.60
2022-12-14T06:20:43.295Z,-3.50
2022-12-14T06:25:54.897Z,-3.50
2022-12-14T06:30:57.141Z,-3.50
2022-12-14T06:36:01.237Z,-3.50
2022-12-14T06:41:08.201Z,-3.60
2022-12-14T06:46:15.505Z,-3.60
2022-12-14T06:51:20.272Z,-3.50
2022-12-14T06:56:26.492Z,-3.50
2022-12-14T07:01:28.800Z,-3.50
2022-12-14T07:06:37.052Z,-3.40
2022-12-14T07:11:39.573Z,-3.40
2022-12-14T07:16:46.500Z,-3.40
2022-12-14T07:21:51.914Z,-3.40
2022-12-14T07:26:53.999Z,-3.50
2022-12-14T07:31:56.206Z,-3.60
2022-12-14T07:36:59.766Z,-3.70
2022-12-14T07:42:01.899Z,-3.90
2022-12-14T07:47:04.230Z,-4.00
2022-12-14T07:52:07.842Z,-4.00
2022-12-14T07:57:09.990Z,-4.00
2022-12-14T08:02:12.287Z,-3.90
2022-12-14T08:07:16.002Z,-3.80
2022-12-14T08:12:18.243Z,-3.50
2022-12-14T08:17:20.481Z,-2.90
2022-12-14T08:22:24.153Z,-1.90
2022-12-14T08:27:26.392Z,-0.90
2022-12-14T08:32:34.107Z,0.10
2022-12-14T08:37:41.658Z,0.90
2022-12-14T08:42:50.458Z,1.50
2022-12-14T08:47:52.733Z,2.10
2022-12-14T08:53:00.816Z,2.70
2022-12-14T08:58:02.961Z,3.10
2022-12-14T09:03:05.326Z,3.50
2022-12-14T09:08:09.017Z,3.80
2022-12-14T09:13:11.650Z,4.10
2022-12-14T09:18:13.792Z,4.20
2022-12-14T09:23:20.403Z,4.40
2022-12-14T09:28:22.728Z,4.50
2022-12-14T09:33:25.515Z,4.60
2022-12-14T09:38:30.297Z,4.80
2022-12-14T09:43:40.644Z,5.00
2022-12-14T09:48:43.370Z,5.20
2022-12-14T09:53:50.589Z,5.40
2022-12-14T09:58:56.179Z,5.60
2022-12-14T10:04:06.053Z,5.60
2022-12-14T10:09:17.753Z,5.70
2022-12-14T10:14:26.812Z,5.80
2022-12-14T10:19:37.719Z,5.90
2022-12-14T10:24:45.954Z,6.10
2022-12-14T10:29:52.238Z,6.20
2022-12-14T10:34:54.429Z,6.30
2022-12-14T10:40:29.214Z,6.50
2022-12-14T10:45:43.022Z,6.70
2022-12-14T10:50:54.009Z,6.80
2022-12-14T10:56:03.978Z,6.80
2022-12-14T11:01:12.345Z,7.00
2022-12-14T11:06:18.774Z,7.10
2022-12-14T11:11:24.802Z,7.30
2022-12-14T11:16:36.271Z,7.60
2022-12-14T11:21:39.654Z,8.10
2022-12-14T11:26:44.132Z,8.60
2022-12-14T11:31:48.472Z,9.00
2022-12-14T11:36:50.804Z,9.30
2022-12-14T11:42:02.140Z,9.60
2022-12-14T11:47:11.634Z,9.90
2022-12-14T11:52:16.273Z,10.20
2022-12-14T11:57:25.094Z,10.40
2022-12-14T12:02:30.838Z,10.70
2022-12-14T12:07:35.863Z,10.90
2022-12-14T12:12:52.288Z,11.00
2022-12-14T12:18:01.181Z,11.20
2022-12-14T12:23:10.372Z,11.30
2022-12-14T12:28:18.603Z,11.40
2022-12-14T12:33:31.211Z,11.60
2022-12-14T12:38:50.124Z,11.80
2022-12-14T12:43:57.748Z,11.90
2022-12-14T12:49:03.006Z,12.10
2022-12-14T12:54:09.492Z,12.20
2022-12-14T12:59:20.231Z,12.20
2022-12-14T13:04:33.412Z,12.20
2022-12-14T13:09:44.887Z,12.10
2022-12-14T13:14:51.003Z,12.10
2022-12-14T13:19:57.128Z,12.10
2022-12-14T13:25:08.499Z,12.10
2022-12-14T13:30:25.350Z,12.00
2022-12-14T13:35:51.941Z,11.90
2022-12-14T13:41:29.070Z,11.70
2022-12-14T13:46:34.933Z,11.60
2022-12-14T13:51:41.468Z,11.50
2022-12-14T13:56:45.707Z,11.30
2022-12-14T14:01:59.206Z,11.10
2022-12-14T14:07:49.559Z,10.80
2022-12-14T14:12:52.014Z,10.40
2022-12-14T14:18:05.320Z,10.00
2022-12-14T14:23:31.496Z,9.70
2022-12-14T14:28:34.112Z,9.30
2022-12-14T14:33:47.588Z,8.80
2022-12-14T14:38:52.725Z,8.30
2022-12-14T14:43:59.866Z,7.80
2022-12-14T14:49:04.915Z,7.20
2022-12-14T14:55:10.678Z,6.70
2022-12-14T15:00:00.603Z,6.20
2022-12-14T15:05:40.893Z,5.80
2022-12-14T15:10:34.170Z,5.40
2022-12-14T15:15:42.351Z,5.00
2022-12-14T15:20:57.751Z,4.80
2022-12-14T15:26:02.415Z,4.50
2022-12-14T15:31:04.804Z,4.30
2022-12-14T15:36:14.357Z,4.10
2022-12-14T15:41:18.029Z,3.90
2022-12-14T15:46:25.705Z,3.70
2022-12-14T15:51:33.196Z,3.40
2022-12-14T15:56:38.959Z,3.20
2022-12-14T16:01:46.051Z,2.90
2022-12-14T16:06:57.228Z,2.70
2022-12-14T16:12:03.817Z,2.50
2022-12-14T16:17:06.121Z,2.40
2022-12-14T16:22:20.829Z,2.30
2022-12-14T16:27:25.871Z,2.10
2022-12-14T16:32:28.257Z,2.00
2022-12-14T16:37:33.645Z,1.70
2022-12-14T16:42:36.564Z,1.50
2022-12-14T16:48:06.975Z,1.20
2022-12-14T16:53:17.614Z,0.80
2022-12-14T16:58:19.683Z,0.30
2022-12-14T17:03:23.380Z,0.10
2022-12-14T17:08:27.379Z,-0.10
2022-12-14T17:13:29.947Z,-0.10
2022-12-14T17:18:35.871Z,-0.10
2022-12-14T17:23:43.047Z,-0.10
2022-12-14T17:28:45.308Z,-0.10
2022-12-14T17:33:51.591Z,-0.10
2022-12-14T17:38:55.143Z,-0.10
2022-12-14T17:43:58.257Z,-0.20
2022-12-14T17:49:04.697Z,-0.10
2022-12-14T17:54:15.922Z,-0.10
2022-12-14T17:59:18.483Z,-0.10
2022-12-14T18:04:20.712Z,-0.10
2022-12-14T18:09:24.268Z,-0.20
2022-12-14T18:14:26.614Z,-0.40
2022-12-14T18:19:28.749Z,-0.50
2022-12-14T18:24:32.847Z,-0.70
2022-12-14T18:29:56.583Z,-0.80
2022-12-14T18:35:27.757Z,-0.90
2022-12-14T18:41:00.644Z,-1.00
2022-12-14T18:46:32.045Z,-1.00
2022-12-14T18:51:35.425Z,-1.10
2022-12-14T18:56:40.952Z,-1.20
2022-12-14T19:02:06.877Z,-1.30
2022-12-14T19:07:11.216Z,-1.40
2022-12-14T19:12:14.932Z,-1.50
2022-12-14T19:17:17.072Z,-1.60
2022-12-14T19:22:19.222Z,-1.60
2022-12-14T19:28:00.971Z,-1.60
2022-12-14T19:32:44.908Z,-1.70
2022-12-14T19:37:51.921Z,-1.70
2022-12-14T19:42:55.402Z,-1.70
2022-12-14T19:47:57.516Z,-1.60
2022-12-14T19:52:59.602Z,-1.50
2022-12-14T19:58:03.207Z,-1.40
2022-12-14T20:03:06.265Z,-1.40
2022-12-14T20:08:09.036Z,-1.40
2022-12-14T20:13:12.571Z,-1.40
2022-12-14T20:18:14.656Z,-1.40
2022-12-14T20:23:16.783Z,-1.40
2022-12-14T20:28:20.252Z,-1.40
2022-12-14T20:33:28.048Z,-1.40
2022-12-14T20:38:32.326Z,-1.40
2022-12-14T20:43:37.286Z,-1.40
2022-12-14T20:48:39.436Z,-1.40
2022-12-14T20:53:41.542Z,-1.40
2022-12-14T20:58:47.153Z,-1.30
2022-12-14T21:03:49.826Z,-1.20
2022-12-14T21:08:52.153Z,-1.10
2022-12-14T21:13:56.715Z,-1.00
2022-12-14T21:18:58.836Z,-0.90
2022-12-14T21:24:01.162Z,-0.90
2022-12-14T21:29:05.130Z,-0.70
2022-12-14T21:34:08.303Z,-0.60
2022-12-14T21:39:11.855Z,-0.40
2022-12-14T21:44:16.227Z,-0.30
2022-12-14T21:49:18.306Z,-0.10
2022-12-14T21:54:20.650Z,0.00
2022-12-14T21:59:26.577Z,0.00
2022-12-14T22:04:33.730Z,0.00
2022-12-14T22:09:40.114Z,-0.10
2022-12-14T22:14:43.806Z,-0.10
2022-12-14T22:19:46.081Z,-0.20
2022-12-14T22:24:49.134Z,-0.20
2022-12-14T22:29:52.648Z,-0.30
2022-12-14T22:34:54.694Z,-0.40
2022-12-14T22:39:56.867Z,-0.40
2022-12-14T22:45:00.455Z,-0.50
2022-12-14T22:50:02.562Z,-0.50
2022-12-14T22:55:05.326Z,-0.50
2022-12-14T23:00:12.372Z,-0.60
2022-12-14T23:05:14.662Z,-0.60
2022-12-14T23:10:17.177Z,-0.60
2022-12-14T23:15:20.727Z,-0.70
2022-12-14T23:20:22.848Z,-0.70
2022-12-14T23:25:24.988Z,-0.80
2022-12-14T23:30:28.558Z,-0.80
2022-12-14T23:35:30.609Z,-0.90
2022-12-14T23:40:32.738Z,-0.90
2022-12-14T23:45:36.407Z,-1.00
2022-12-14T23:50:38.721Z,-1.10
2022-12-14T23:55:40.842Z,-1.00
